sensor_id;sensor_type;location;lat;lon;timestamp;P1;durP1;ratioP1;P2;durP2;ratioP2
2748;SDS011;1382;52.142;11.618;2023-09-19T00:01:29;3.57;;;0.83;;
2748;SDS011;1382;52.142;11.618;2023-09-19T00:03:58;5.37;;;0.90;;
2748;SDS011;1382;52.142;11.618;2023-09-19T00:06:24;2.93;;;0.87;;
2748;SDS011;1382;52.142;11.618;2023-09-19T00:08:54;0.60;;;0.60;;
2748;SDS011;1382;52.142;11.618;2023-09-19T00:11:20;1.33;;;0.80;;
2748;SDS011;1382;52.142;11.618;2023-09-19T00:13:47;2.13;;;0.67;;
2748;SDS011;1382;52.142;11.618;2023-09-19T00:16:14;0.80;;;0.60;;
2748;SDS011;1382;52.142;11.618;2023-09-19T00:18:41;1.50;;;0.70;;
2748;SDS011;1382;52.142;11.618;2023-09-19T00:21:09;1.90;;;0.70;;
2748;SDS011;1382;52.142;11.618;2023-09-19T00:23:36;2.33;;;0.70;;
2748;SDS011;1382;52.142;11.618;2023-09-19T00:26:04;2.20;;;0.60;;
2748;SDS011;1382;52.142;11.618;2023-09-19T00:28:30;1.10;;;0.73;;
2748;SDS011;1382;52.142;11.618;2023-09-19T00:30:57;0.83;;;0.50;;
2748;SDS011;1382;52.142;11.618;2023-09-19T00:33:24;1.23;;;0.53;;
2748;SDS011;1382;52.142;11.618;2023-09-19T00:35:52;1.07;;;0.60;;
2748;SDS011;1382;52.142;11.618;2023-09-19T00:38:21;1.80;;;0.53;;
2748;SDS011;1382;52.142;11.618;2023-09-19T00:40:49;0.90;;;0.63;;
2748;SDS011;1382;52.142;11.618;2023-09-19T00:43:16;2.53;;;0.70;;
2748;SDS011;1382;52.142;11.618;2023-09-19T00:45:45;0.70;;;0.60;;
2748;SDS011;1382;52.142;11.618;2023-09-19T00:48:13;1.67;;;0.90;;
2748;SDS011;1382;52.142;11.618;2023-09-19T00:50:41;1.77;;;0.40;;
2748;SDS011;1382;52.142;11.618;2023-09-19T00:53:09;2.77;;;0.90;;
2748;SDS011;1382;52.142;11.618;2023-09-19T00:55:41;0.80;;;0.60;;
2748;SDS011;1382;52.142;11.618;2023-09-19T00:58:08;0.97;;;0.60;;
2748;SDS011;1382;52.142;11.618;2023-09-19T01:00:36;1.30;;;0.70;;
2748;SDS011;1382;52.142;11.618;2023-09-19T01:03:04;2.50;;;0.93;;
2748;SDS011;1382;52.142;11.618;2023-09-19T01:05:32;2.33;;;0.73;;
2748;SDS011;1382;52.142;11.618;2023-09-19T01:07:59;0.90;;;0.47;;
2748;SDS011;1382;52.142;11.618;2023-09-19T01:10:26;3.40;;;0.63;;
2748;SDS011;1382;52.142;11.618;2023-09-19T01:12:58;0.87;;;0.70;;
2748;SDS011;1382;52.142;11.618;2023-09-19T01:15:32;2.03;;;0.60;;
2748;SDS011;1382;52.142;11.618;2023-09-19T01:18:11;0.90;;;0.50;;
2748;SDS011;1382;52.142;11.618;2023-09-19T01:20:50;2.47;;;0.93;;
2748;SDS011;1382;52.142;11.618;2023-09-19T01:23:24;1.60;;;0.60;;
2748;SDS011;1382;52.142;11.618;2023-09-19T01:26:05;1.20;;;0.70;;
2748;SDS011;1382;52.142;11.618;2023-09-19T01:28:38;1.07;;;0.50;;
2748;SDS011;1382;52.142;11.618;2023-09-19T01:31:13;1.57;;;0.70;;
2748;SDS011;1382;52.142;11.618;2023-09-19T01:36:30;1.17;;;0.60;;
2748;SDS011;1382;52.142;11.618;2023-09-19T01:38:58;0.80;;;0.70;;
2748;SDS011;1382;52.142;11.618;2023-09-19T01:41:30;1.07;;;0.60;;
2748;SDS011;1382;52.142;11.618;2023-09-19T01:44:09;1.13;;;0.60;;
2748;SDS011;1382;52.142;11.618;2023-09-19T01:46:43;1.00;;;0.70;;
2748;SDS011;1382;52.142;11.618;2023-09-19T01:49:15;0.80;;;0.70;;
2748;SDS011;1382;52.142;11.618;2023-09-19T01:51:53;2.67;;;1.00;;
2748;SDS011;1382;52.142;11.618;2023-09-19T01:54:27;1.57;;;0.90;;
2748;SDS011;1382;52.142;11.618;2023-09-19T01:56:59;0.90;;;0.80;;
2748;SDS011;1382;52.142;11.618;2023-09-19T01:59:34;1.83;;;0.67;;
2748;SDS011;1382;52.142;11.618;2023-09-19T02:02:05;2.10;;;1.00;;
2748;SDS011;1382;52.142;11.618;2023-09-19T02:04:33;1.53;;;1.27;;
2748;SDS011;1382;52.142;11.618;2023-09-19T02:07:02;3.80;;;1.20;;
2748;SDS011;1382;52.142;11.618;2023-09-19T02:09:29;1.27;;;0.80;;
2748;SDS011;1382;52.142;11.618;2023-09-19T02:11:56;2.00;;;1.17;;
2748;SDS011;1382;52.142;11.618;2023-09-19T02:14:23;1.37;;;0.90;;
2748;SDS011;1382;52.142;11.618;2023-09-19T02:16:50;1.70;;;1.30;;
2748;SDS011;1382;52.142;11.618;2023-09-19T02:19:18;1.20;;;0.90;;
2748;SDS011;1382;52.142;11.618;2023-09-19T02:21:45;2.60;;;1.23;;
2748;SDS011;1382;52.142;11.618;2023-09-19T02:24:12;5.10;;;1.60;;
2748;SDS011;1382;52.142;11.618;2023-09-19T02:26:38;3.60;;;1.10;;
2748;SDS011;1382;52.142;11.618;2023-09-19T02:29:05;1.50;;;1.40;;
2748;SDS011;1382;52.142;11.618;2023-09-19T02:31:32;2.20;;;1.20;;
2748;SDS011;1382;52.142;11.618;2023-09-19T02:33:59;2.03;;;1.60;;
2748;SDS011;1382;52.142;11.618;2023-09-19T02:36:27;1.30;;;1.20;;
2748;SDS011;1382;52.142;11.618;2023-09-19T02:38:54;1.93;;;1.70;;
2748;SDS011;1382;52.142;11.618;2023-09-19T02:41:21;2.20;;;1.50;;
2748;SDS011;1382;52.142;11.618;2023-09-19T02:43:48;2.50;;;1.43;;
2748;SDS011;1382;52.142;11.618;2023-09-19T02:46:15;2.70;;;1.50;;
2748;SDS011;1382;52.142;11.618;2023-09-19T02:48:42;2.60;;;1.10;;
2748;SDS011;1382;52.142;11.618;2023-09-19T02:51:08;1.53;;;1.20;;
2748;SDS011;1382;52.142;11.618;2023-09-19T02:53:37;2.77;;;1.40;;
2748;SDS011;1382;52.142;11.618;2023-09-19T02:56:04;1.50;;;1.40;;
2748;SDS011;1382;52.142;11.618;2023-09-19T02:58:31;1.90;;;1.23;;
2748;SDS011;1382;52.142;11.618;2023-09-19T03:00:58;3.30;;;1.30;;
2748;SDS011;1382;52.142;11.618;2023-09-19T03:03:25;4.63;;;1.43;;
2748;SDS011;1382;52.142;11.618;2023-09-19T03:05:52;2.23;;;1.20;;
2748;SDS011;1382;52.142;11.618;2023-09-19T03:08:21;4.90;;;1.70;;
2748;SDS011;1382;52.142;11.618;2023-09-19T03:10:49;4.03;;;1.53;;
2748;SDS011;1382;52.142;11.618;2023-09-19T03:13:16;2.03;;;1.63;;
2748;SDS011;1382;52.142;11.618;2023-09-19T03:15:43;5.13;;;1.80;;
2748;SDS011;1382;52.142;11.618;2023-09-19T03:18:10;1.87;;;1.50;;
2748;SDS011;1382;52.142;11.618;2023-09-19T03:20:37;2.77;;;2.20;;
2748;SDS011;1382;52.142;11.618;2023-09-19T03:23:04;4.37;;;1.60;;
2748;SDS011;1382;52.142;11.618;2023-09-19T03:25:31;2.17;;;1.70;;
2748;SDS011;1382;52.142;11.618;2023-09-19T03:28:01;5.67;;;2.87;;
2748;SDS011;1382;52.142;11.618;2023-09-19T03:30:28;2.50;;;2.10;;
2748;SDS011;1382;52.142;11.618;2023-09-19T03:32:55;3.90;;;1.70;;
2748;SDS011;1382;52.142;11.618;2023-09-19T03:35:21;5.73;;;2.20;;
2748;SDS011;1382;52.142;11.618;2023-09-19T03:37:48;4.73;;;1.83;;
2748;SDS011;1382;52.142;11.618;2023-09-19T03:40:15;4.90;;;1.87;;
2748;SDS011;1382;52.142;11.618;2023-09-19T03:42:42;6.23;;;2.17;;
2748;SDS011;1382;52.142;11.618;2023-09-19T03:45:11;5.07;;;2.03;;
2748;SDS011;1382;52.142;11.618;2023-09-19T03:47:38;3.60;;;2.17;;
2748;SDS011;1382;52.142;11.618;2023-09-19T03:50:05;2.17;;;1.97;;
2748;SDS011;1382;52.142;11.618;2023-09-19T03:52:32;4.87;;;2.47;;
2748;SDS011;1382;52.142;11.618;2023-09-19T03:55:00;2.93;;;2.27;;
2748;SDS011;1382;52.142;11.618;2023-09-19T03:57:27;3.87;;;2.13;;
2748;SDS011;1382;52.142;11.618;2023-09-19T03:59:53;3.60;;;2.43;;
2748;SDS011;1382;52.142;11.618;2023-09-19T04:02:22;2.23;;;2.03;;
2748;SDS011;1382;52.142;11.618;2023-09-19T04:04:49;2.40;;;2.00;;
2748;SDS011;1382;52.142;11.618;2023-09-19T04:07:17;3.00;;;1.80;;
2748;SDS011;1382;52.142;11.618;2023-09-19T04:09:44;2.60;;;2.40;;
2748;SDS011;1382;52.142;11.618;2023-09-19T04:12:11;3.27;;;2.07;;
2748;SDS011;1382;52.142;11.618;2023-09-19T04:14:37;4.20;;;2.50;;
2748;SDS011;1382;52.142;11.618;2023-09-19T04:17:04;7.40;;;2.40;;
2748;SDS011;1382;52.142;11.618;2023-09-19T04:19:36;3.20;;;2.30;;
2748;SDS011;1382;52.142;11.618;2023-09-19T04:22:03;3.43;;;2.20;;
2748;SDS011;1382;52.142;11.618;2023-09-19T04:24:30;4.93;;;2.33;;
2748;SDS011;1382;52.142;11.618;2023-09-19T04:26:57;4.17;;;2.20;;
2748;SDS011;1382;52.142;11.618;2023-09-19T04:29:24;6.67;;;2.80;;
2748;SDS011;1382;52.142;11.618;2023-09-19T04:31:51;3.80;;;2.53;;
2748;SDS011;1382;52.142;11.618;2023-09-19T04:34:18;2.40;;;2.20;;
2748;SDS011;1382;52.142;11.618;2023-09-19T04:36:46;6.77;;;2.47;;
2748;SDS011;1382;52.142;11.618;2023-09-19T04:39:13;3.80;;;2.67;;
2748;SDS011;1382;52.142;11.618;2023-09-19T04:41:40;3.63;;;2.60;;
2748;SDS011;1382;52.142;11.618;2023-09-19T04:44:06;8.00;;;3.33;;
2748;SDS011;1382;52.142;11.618;2023-09-19T04:46:33;5.90;;;3.20;;
2748;SDS011;1382;52.142;11.618;2023-09-19T04:49:01;4.93;;;2.67;;
2748;SDS011;1382;52.142;11.618;2023-09-19T04:51:28;4.80;;;2.63;;
2748;SDS011;1382;52.142;11.618;2023-09-19T04:53:56;2.80;;;2.60;;
2748;SDS011;1382;52.142;11.618;2023-09-19T04:56:23;3.73;;;2.87;;
2748;SDS011;1382;52.142;11.618;2023-09-19T04:58:50;4.87;;;2.60;;
2748;SDS011;1382;52.142;11.618;2023-09-19T05:01:16;6.33;;;2.10;;
2748;SDS011;1382;52.142;11.618;2023-09-19T05:03:46;4.07;;;2.37;;
2748;SDS011;1382;52.142;11.618;2023-09-19T05:06:16;6.20;;;2.50;;
2748;SDS011;1382;52.142;11.618;2023-09-19T05:08:45;5.40;;;2.40;;
2748;SDS011;1382;52.142;11.618;2023-09-19T05:11:13;7.23;;;2.50;;
2748;SDS011;1382;52.142;11.618;2023-09-19T05:13:40;2.37;;;2.17;;
2748;SDS011;1382;52.142;11.618;2023-09-19T05:16:07;4.73;;;2.50;;
2748;SDS011;1382;52.142;11.618;2023-09-19T05:18:34;2.63;;;2.17;;
2748;SDS011;1382;52.142;11.618;2023-09-19T05:21:01;5.27;;;2.73;;
2748;SDS011;1382;52.142;11.618;2023-09-19T05:23:28;3.10;;;2.13;;
2748;SDS011;1382;52.142;11.618;2023-09-19T05:25:55;3.93;;;2.50;;
2748;SDS011;1382;52.142;11.618;2023-09-19T05:28:23;4.30;;;2.50;;
2748;SDS011;1382;52.142;11.618;2023-09-19T05:30:50;4.67;;;2.83;;
2748;SDS011;1382;52.142;11.618;2023-09-19T05:33:17;3.30;;;2.77;;
2748;SDS011;1382;52.142;11.618;2023-09-19T05:35:44;5.53;;;2.63;;
2748;SDS011;1382;52.142;11.618;2023-09-19T05:38:11;5.90;;;2.80;;
2748;SDS011;1382;52.142;11.618;2023-09-19T05:40:38;10.97;;;3.10;;
2748;SDS011;1382;52.142;11.618;2023-09-19T05:43:05;2.83;;;2.10;;
2748;SDS011;1382;52.142;11.618;2023-09-19T05:45:33;6.53;;;2.60;;
2748;SDS011;1382;52.142;11.618;2023-09-19T05:48:07;5.20;;;2.50;;
2748;SDS011;1382;52.142;11.618;2023-09-19T05:50:34;8.93;;;2.73;;
2748;SDS011;1382;52.142;11.618;2023-09-19T05:53:01;4.60;;;2.70;;
2748;SDS011;1382;52.142;11.618;2023-09-19T05:55:28;4.43;;;2.53;;
2748;SDS011;1382;52.142;11.618;2023-09-19T05:57:55;4.67;;;2.47;;
2748;SDS011;1382;52.142;11.618;2023-09-19T06:00:22;5.20;;;2.60;;
2748;SDS011;1382;52.142;11.618;2023-09-19T06:02:52;4.07;;;2.30;;
2748;SDS011;1382;52.142;11.618;2023-09-19T06:05:19;6.80;;;2.80;;
2748;SDS011;1382;52.142;11.618;2023-09-19T06:07:46;4.10;;;2.47;;
2748;SDS011;1382;52.142;11.618;2023-09-19T06:10:14;6.60;;;2.50;;
2748;SDS011;1382;52.142;11.618;2023-09-19T06:12:41;6.47;;;2.20;;
2748;SDS011;1382;52.142;11.618;2023-09-19T06:15:08;3.93;;;2.33;;
2748;SDS011;1382;52.142;11.618;2023-09-19T06:17:35;6.10;;;2.10;;
2748;SDS011;1382;52.142;11.618;2023-09-19T06:20:04;7.00;;;2.40;;
2748;SDS011;1382;52.142;11.618;2023-09-19T06:22:32;3.90;;;2.43;;
2748;SDS011;1382;52.142;11.618;2023-09-19T06:24:58;9.17;;;3.17;;
2748;SDS011;1382;52.142;11.618;2023-09-19T06:27:25;8.00;;;2.90;;
2748;SDS011;1382;52.142;11.618;2023-09-19T06:29:52;6.23;;;2.70;;
2748;SDS011;1382;52.142;11.618;2023-09-19T06:32:19;6.40;;;2.70;;
2748;SDS011;1382;52.142;11.618;2023-09-19T06:34:52;5.07;;;2.50;;
2748;SDS011;1382;52.142;11.618;2023-09-19T06:37:21;4.30;;;2.57;;
2748;SDS011;1382;52.142;11.618;2023-09-19T06:39:48;7.57;;;2.73;;
2748;SDS011;1382;52.142;11.618;2023-09-19T06:42:14;8.30;;;3.93;;
2748;SDS011;1382;52.142;11.618;2023-09-19T06:44:42;5.57;;;2.73;;
2748;SDS011;1382;52.142;11.618;2023-09-19T06:47:09;5.43;;;3.10;;
2748;SDS011;1382;52.142;11.618;2023-09-19T06:49:36;4.83;;;3.00;;
2748;SDS011;1382;52.142;11.618;2023-09-19T06:52:03;4.67;;;2.90;;
2748;SDS011;1382;52.142;11.618;2023-09-19T06:54:32;6.40;;;2.70;;
2748;SDS011;1382;52.142;11.618;2023-09-19T06:56:59;5.20;;;2.83;;
2748;SDS011;1382;52.142;11.618;2023-09-19T06:59:26;4.90;;;3.10;;
2748;SDS011;1382;52.142;11.618;2023-09-19T07:01:53;6.60;;;3.10;;
2748;SDS011;1382;52.142;11.618;2023-09-19T07:04:23;9.83;;;3.10;;
2748;SDS011;1382;52.142;11.618;2023-09-19T07:06:50;5.77;;;2.97;;
2748;SDS011;1382;52.142;11.618;2023-09-19T07:09:17;10.17;;;3.60;;
2748;SDS011;1382;52.142;11.618;2023-09-19T07:11:45;6.20;;;2.90;;
2748;SDS011;1382;52.142;11.618;2023-09-19T07:14:12;7.30;;;3.47;;
2748;SDS011;1382;52.142;11.618;2023-09-19T07:16:39;6.90;;;3.20;;
2748;SDS011;1382;52.142;11.618;2023-09-19T07:19:06;6.37;;;2.90;;
2748;SDS011;1382;52.142;11.618;2023-09-19T07:21:32;5.57;;;2.90;;
2748;SDS011;1382;52.142;11.618;2023-09-19T07:23:59;6.33;;;2.80;;
2748;SDS011;1382;52.142;11.618;2023-09-19T07:26:26;3.43;;;2.60;;
2748;SDS011;1382;52.142;11.618;2023-09-19T07:28:55;5.50;;;2.60;;
2748;SDS011;1382;52.142;11.618;2023-09-19T07:31:22;6.20;;;3.63;;
2748;SDS011;1382;52.142;11.618;2023-09-19T07:33:48;6.10;;;2.40;;
2748;SDS011;1382;52.142;11.618;2023-09-19T07:36:16;6.60;;;3.27;;
2748;SDS011;1382;52.142;11.618;2023-09-19T07:38:43;10.50;;;3.20;;
2748;SDS011;1382;52.142;11.618;2023-09-19T07:41:09;8.67;;;2.77;;
2748;SDS011;1382;52.142;11.618;2023-09-19T07:43:36;10.23;;;3.13;;
2748;SDS011;1382;52.142;11.618;2023-09-19T07:46:06;4.93;;;2.80;;
2748;SDS011;1382;52.142;11.618;2023-09-19T07:48:34;6.53;;;2.67;;
2748;SDS011;1382;52.142;11.618;2023-09-19T07:51:01;7.27;;;2.40;;
2748;SDS011;1382;52.142;11.618;2023-09-19T07:53:29;8.30;;;2.67;;
2748;SDS011;1382;52.142;11.618;2023-09-19T07:56:01;5.60;;;2.77;;
2748;SDS011;1382;52.142;11.618;2023-09-19T07:58:28;5.17;;;2.63;;
2748;SDS011;1382;52.142;11.618;2023-09-19T08:00:55;10.73;;;2.87;;
2748;SDS011;1382;52.142;11.618;2023-09-19T08:03:23;6.30;;;3.40;;
2748;SDS011;1382;52.142;11.618;2023-09-19T08:05:51;10.63;;;2.70;;
2748;SDS011;1382;52.142;11.618;2023-09-19T08:08:17;5.43;;;2.07;;
2748;SDS011;1382;52.142;11.618;2023-09-19T08:10:44;7.03;;;2.77;;
2748;SDS011;1382;52.142;11.618;2023-09-19T08:13:11;7.87;;;3.60;;
2748;SDS011;1382;52.142;11.618;2023-09-19T08:15:40;7.20;;;2.67;;
2748;SDS011;1382;52.142;11.618;2023-09-19T08:18:10;5.67;;;3.03;;
2748;SDS011;1382;52.142;11.618;2023-09-19T08:20:38;6.73;;;2.70;;
2748;SDS011;1382;52.142;11.618;2023-09-19T08:23:05;8.57;;;2.47;;
2748;SDS011;1382;52.142;11.618;2023-09-19T08:25:32;13.30;;;3.00;;
2748;SDS011;1382;52.142;11.618;2023-09-19T08:27:58;6.50;;;3.20;;
2748;SDS011;1382;52.142;11.618;2023-09-19T08:30:26;10.23;;;3.57;;
2748;SDS011;1382;52.142;11.618;2023-09-19T08:32:56;5.73;;;2.77;;
2748;SDS011;1382;52.142;11.618;2023-09-19T08:35:23;7.50;;;3.00;;
2748;SDS011;1382;52.142;11.618;2023-09-19T08:37:52;8.90;;;3.00;;
2748;SDS011;1382;52.142;11.618;2023-09-19T08:40:19;8.20;;;2.80;;
2748;SDS011;1382;52.142;11.618;2023-09-19T08:42:49;10.40;;;2.90;;
2748;SDS011;1382;52.142;11.618;2023-09-19T08:45:16;5.90;;;2.80;;
2748;SDS011;1382;52.142;11.618;2023-09-19T08:47:45;11.20;;;3.37;;
2748;SDS011;1382;52.142;11.618;2023-09-19T08:50:16;10.53;;;2.70;;
2748;SDS011;1382;52.142;11.618;2023-09-19T08:52:50;10.13;;;2.40;;
2748;SDS011;1382;52.142;11.618;2023-09-19T08:55:22;10.60;;;3.27;;
2748;SDS011;1382;52.142;11.618;2023-09-19T08:57:54;6.03;;;2.67;;
2748;SDS011;1382;52.142;11.618;2023-09-19T09:00:26;7.93;;;2.93;;
2748;SDS011;1382;52.142;11.618;2023-09-19T09:02:53;9.10;;;2.47;;
2748;SDS011;1382;52.142;11.618;2023-09-19T09:05:21;8.40;;;3.10;;
2748;SDS011;1382;52.142;11.618;2023-09-19T09:07:49;5.37;;;1.93;;
2748;SDS011;1382;52.142;11.618;2023-09-19T09:10:19;5.77;;;3.13;;
2748;SDS011;1382;52.142;11.618;2023-09-19T09:12:46;8.37;;;3.40;;
2748;SDS011;1382;52.142;11.618;2023-09-19T09:15:13;9.00;;;2.90;;
2748;SDS011;1382;52.142;11.618;2023-09-19T09:17:39;10.87;;;2.80;;
2748;SDS011;1382;52.142;11.618;2023-09-19T09:20:07;7.23;;;2.20;;
2748;SDS011;1382;52.142;11.618;2023-09-19T09:22:34;8.07;;;3.20;;
2748;SDS011;1382;52.142;11.618;2023-09-19T09:25:01;8.53;;;2.40;;
2748;SDS011;1382;52.142;11.618;2023-09-19T09:27:30;12.00;;;2.70;;
2748;SDS011;1382;52.142;11.618;2023-09-19T09:29:57;10.30;;;3.40;;
2748;SDS011;1382;52.142;11.618;2023-09-19T09:32:25;12.23;;;3.33;;
2748;SDS011;1382;52.142;11.618;2023-09-19T09:34:53;4.70;;;2.63;;
2748;SDS011;1382;52.142;11.618;2023-09-19T09:37:25;5.03;;;2.03;;
2748;SDS011;1382;52.142;11.618;2023-09-19T09:39:53;10.40;;;3.00;;
2748;SDS011;1382;52.142;11.618;2023-09-19T09:42:31;6.20;;;2.83;;
2748;SDS011;1382;52.142;11.618;2023-09-19T09:45:15;6.30;;;2.53;;
2748;SDS011;1382;52.142;11.618;2023-09-19T09:47:44;5.20;;;2.03;;
2748;SDS011;1382;52.142;11.618;2023-09-19T09:50:12;7.20;;;2.20;;
2748;SDS011;1382;52.142;11.618;2023-09-19T09:52:45;9.27;;;2.30;;
2748;SDS011;1382;52.142;11.618;2023-09-19T09:55:12;4.73;;;1.90;;
2748;SDS011;1382;52.142;11.618;2023-09-19T09:57:40;8.13;;;2.47;;
2748;SDS011;1382;52.142;11.618;2023-09-19T10:00:07;5.47;;;2.30;;
2748;SDS011;1382;52.142;11.618;2023-09-19T10:02:37;8.00;;;2.70;;
2748;SDS011;1382;52.142;11.618;2023-09-19T10:05:10;4.87;;;2.57;;
2748;SDS011;1382;52.142;11.618;2023-09-19T10:07:39;10.90;;;2.37;;
2748;SDS011;1382;52.142;11.618;2023-09-19T10:10:09;7.27;;;2.60;;
2748;SDS011;1382;52.142;11.618;2023-09-19T10:12:38;11.53;;;2.93;;
2748;SDS011;1382;52.142;11.618;2023-09-19T10:15:08;5.47;;;2.43;;
2748;SDS011;1382;52.142;11.618;2023-09-19T10:17:37;6.10;;;1.70;;
2748;SDS011;1382;52.142;11.618;2023-09-19T10:20:09;9.30;;;2.63;;
2748;SDS011;1382;52.142;11.618;2023-09-19T10:22:40;7.53;;;2.50;;
2748;SDS011;1382;52.142;11.618;2023-09-19T10:25:08;3.77;;;2.10;;
2748;SDS011;1382;52.142;11.618;2023-09-19T10:27:35;5.13;;;2.30;;
2748;SDS011;1382;52.142;11.618;2023-09-19T10:30:05;5.90;;;2.40;;
2748;SDS011;1382;52.142;11.618;2023-09-19T10:32:36;12.43;;;2.60;;
2748;SDS011;1382;52.142;11.618;2023-09-19T10:35:06;3.10;;;1.93;;
2748;SDS011;1382;52.142;11.618;2023-09-19T10:37:34;7.23;;;2.10;;
2748;SDS011;1382;52.142;11.618;2023-09-19T10:40:04;5.03;;;2.03;;
2748;SDS011;1382;52.142;11.618;2023-09-19T10:42:33;4.03;;;2.10;;
2748;SDS011;1382;52.142;11.618;2023-09-19T10:45:05;4.33;;;1.90;;
2748;SDS011;1382;52.142;11.618;2023-09-19T10:47:35;6.73;;;1.70;;
2748;SDS011;1382;52.142;11.618;2023-09-19T10:50:02;5.27;;;1.90;;
2748;SDS011;1382;52.142;11.618;2023-09-19T10:52:32;5.03;;;1.80;;
2748;SDS011;1382;52.142;11.618;2023-09-19T10:55:05;3.90;;;1.90;;
2748;SDS011;1382;52.142;11.618;2023-09-19T10:57:34;3.37;;;2.40;;
2748;SDS011;1382;52.142;11.618;2023-09-19T11:00:02;3.37;;;2.13;;
2748;SDS011;1382;52.142;11.618;2023-09-19T11:02:31;5.60;;;2.37;;
2748;SDS011;1382;52.142;11.618;2023-09-19T11:05:04;8.67;;;2.70;;
2748;SDS011;1382;52.142;11.618;2023-09-19T11:13:24;7.97;;;2.13;;
2748;SDS011;1382;52.142;11.618;2023-09-19T11:18:55;5.10;;;2.40;;
2748;SDS011;1382;52.142;11.618;2023-09-19T11:24:31;6.87;;;2.63;;
2748;SDS011;1382;52.142;11.618;2023-09-19T11:27:14;4.00;;;2.43;;
2748;SDS011;1382;52.142;11.618;2023-09-19T11:29:41;9.73;;;1.93;;
2748;SDS011;1382;52.142;11.618;2023-09-19T11:32:08;4.53;;;2.50;;
2748;SDS011;1382;52.142;11.618;2023-09-19T11:34:40;7.10;;;3.00;;
2748;SDS011;1382;52.142;11.618;2023-09-19T11:40:25;2.43;;;1.80;;
2748;SDS011;1382;52.142;11.618;2023-09-19T11:42:52;4.90;;;2.53;;
2748;SDS011;1382;52.142;11.618;2023-09-19T11:48:23;4.70;;;1.97;;
2748;SDS011;1382;52.142;11.618;2023-09-19T11:50:52;5.70;;;2.47;;
2748;SDS011;1382;52.142;11.618;2023-09-19T11:53:19;4.60;;;2.50;;
2748;SDS011;1382;52.142;11.618;2023-09-19T11:55:47;3.27;;;2.00;;
2748;SDS011;1382;52.142;11.618;2023-09-19T11:58:14;6.63;;;2.37;;
2748;SDS011;1382;52.142;11.618;2023-09-19T12:00:41;3.90;;;2.00;;
2748;SDS011;1382;52.142;11.618;2023-09-19T12:03:11;4.40;;;2.17;;
2748;SDS011;1382;52.142;11.618;2023-09-19T12:05:39;8.53;;;2.57;;
2748;SDS011;1382;52.142;11.618;2023-09-19T12:08:09;6.87;;;2.60;;
2748;SDS011;1382;52.142;11.618;2023-09-19T12:10:44;7.43;;;2.67;;
2748;SDS011;1382;52.142;11.618;2023-09-19T12:13:15;7.30;;;2.73;;
2748;SDS011;1382;52.142;11.618;2023-09-19T12:15:42;4.33;;;2.50;;
2748;SDS011;1382;52.142;11.618;2023-09-19T12:18:09;4.20;;;2.87;;
2748;SDS011;1382;52.142;11.618;2023-09-19T12:20:43;6.03;;;2.47;;
2748;SDS011;1382;52.142;11.618;2023-09-19T12:23:14;6.90;;;2.07;;
2748;SDS011;1382;52.142;11.618;2023-09-19T12:25:41;7.77;;;2.77;;
2748;SDS011;1382;52.142;11.618;2023-09-19T12:28:08;5.87;;;2.03;;
2748;SDS011;1382;52.142;11.618;2023-09-19T12:30:35;6.80;;;3.03;;
2748;SDS011;1382;52.142;11.618;2023-09-19T12:33:02;6.37;;;3.70;;
2748;SDS011;1382;52.142;11.618;2023-09-19T12:35:30;9.50;;;2.87;;
2748;SDS011;1382;52.142;11.618;2023-09-19T12:37:57;8.73;;;2.90;;
2748;SDS011;1382;52.142;11.618;2023-09-19T12:40:26;5.30;;;2.80;;
2748;SDS011;1382;52.142;11.618;2023-09-19T12:42:56;10.53;;;3.20;;
2748;SDS011;1382;52.142;11.618;2023-09-19T12:45:23;5.17;;;3.03;;
2748;SDS011;1382;52.142;11.618;2023-09-19T12:51:04;5.53;;;2.97;;
2748;SDS011;1382;52.142;11.618;2023-09-19T12:53:35;7.57;;;2.80;;
2748;SDS011;1382;52.142;11.618;2023-09-19T12:56:04;7.37;;;3.27;;
2748;SDS011;1382;52.142;11.618;2023-09-19T12:58:31;34.33;;;3.60;;
2748;SDS011;1382;52.142;11.618;2023-09-19T13:00:58;5.50;;;3.20;;
2748;SDS011;1382;52.142;11.618;2023-09-19T13:03:27;7.27;;;2.73;;
2748;SDS011;1382;52.142;11.618;2023-09-19T13:05:54;4.53;;;2.83;;
2748;SDS011;1382;52.142;11.618;2023-09-19T13:08:25;4.63;;;2.37;;
2748;SDS011;1382;52.142;11.618;2023-09-19T13:11:03;7.70;;;3.00;;
2748;SDS011;1382;52.142;11.618;2023-09-19T13:13:32;7.10;;;2.80;;
2748;SDS011;1382;52.142;11.618;2023-09-19T13:16:00;6.83;;;3.10;;
2748;SDS011;1382;52.142;11.618;2023-09-19T13:18:28;3.73;;;2.30;;
2748;SDS011;1382;52.142;11.618;2023-09-19T13:21:07;4.47;;;2.50;;
2748;SDS011;1382;52.142;11.618;2023-09-19T13:23:34;7.40;;;2.73;;
2748;SDS011;1382;52.142;11.618;2023-09-19T13:26:01;4.13;;;2.50;;
2748;SDS011;1382;52.142;11.618;2023-09-19T13:28:30;7.00;;;2.67;;
2748;SDS011;1382;52.142;11.618;2023-09-19T13:30:56;4.43;;;2.70;;
2748;SDS011;1382;52.142;11.618;2023-09-19T13:33:23;5.43;;;2.73;;
2748;SDS011;1382;52.142;11.618;2023-09-19T13:35:50;6.40;;;2.50;;
2748;SDS011;1382;52.142;11.618;2023-09-19T13:38:17;5.80;;;2.90;;
2748;SDS011;1382;52.142;11.618;2023-09-19T13:40:44;9.70;;;3.10;;
2748;SDS011;1382;52.142;11.618;2023-09-19T13:43:11;4.50;;;2.80;;
2748;SDS011;1382;52.142;11.618;2023-09-19T13:45:40;8.87;;;2.60;;
2748;SDS011;1382;52.142;11.618;2023-09-19T13:48:07;6.20;;;3.07;;
2748;SDS011;1382;52.142;11.618;2023-09-19T13:50:34;4.23;;;2.37;;
2748;SDS011;1382;52.142;11.618;2023-09-19T13:53:01;4.50;;;2.53;;
2748;SDS011;1382;52.142;11.618;2023-09-19T13:55:28;6.40;;;2.60;;
2748;SDS011;1382;52.142;11.618;2023-09-19T13:57:55;8.57;;;3.30;;
2748;SDS011;1382;52.142;11.618;2023-09-19T14:00:22;5.60;;;2.77;;
2748;SDS011;1382;52.142;11.618;2023-09-19T14:02:51;4.53;;;2.33;;
2748;SDS011;1382;52.142;11.618;2023-09-19T14:05:18;5.73;;;2.60;;
2748;SDS011;1382;52.142;11.618;2023-09-19T14:07:45;6.97;;;2.60;;
2748;SDS011;1382;52.142;11.618;2023-09-19T14:10:12;5.50;;;3.60;;
2748;SDS011;1382;52.142;11.618;2023-09-19T14:12:40;7.50;;;2.87;;
2748;SDS011;1382;52.142;11.618;2023-09-19T14:15:11;15.13;;;2.87;;
2748;SDS011;1382;52.142;11.618;2023-09-19T14:17:46;5.33;;;2.73;;
2748;SDS011;1382;52.142;11.618;2023-09-19T14:20:21;10.00;;;3.20;;
2748;SDS011;1382;52.142;11.618;2023-09-19T14:22:48;9.83;;;3.17;;
2748;SDS011;1382;52.142;11.618;2023-09-19T14:25:15;7.43;;;2.87;;
2748;SDS011;1382;52.142;11.618;2023-09-19T14:27:42;7.27;;;3.00;;
2748;SDS011;1382;52.142;11.618;2023-09-19T14:30:10;7.40;;;2.80;;
2748;SDS011;1382;52.142;11.618;2023-09-19T14:32:38;8.60;;;3.30;;
2748;SDS011;1382;52.142;11.618;2023-09-19T14:35:05;5.50;;;2.63;;
2748;SDS011;1382;52.142;11.618;2023-09-19T14:37:34;10.10;;;3.10;;
2748;SDS011;1382;52.142;11.618;2023-09-19T14:40:01;6.40;;;2.50;;
2748;SDS011;1382;52.142;11.618;2023-09-19T14:42:35;7.40;;;3.90;;
2748;SDS011;1382;52.142;11.618;2023-09-19T14:45:02;6.07;;;2.80;;
2748;SDS011;1382;52.142;11.618;2023-09-19T14:47:30;6.00;;;2.83;;
2748;SDS011;1382;52.142;11.618;2023-09-19T14:49:59;5.17;;;2.90;;
2748;SDS011;1382;52.142;11.618;2023-09-19T14:52:27;6.47;;;3.27;;
2748;SDS011;1382;52.142;11.618;2023-09-19T14:54:56;10.50;;;2.90;;
2748;SDS011;1382;52.142;11.618;2023-09-19T14:57:22;11.97;;;3.27;;
2748;SDS011;1382;52.142;11.618;2023-09-19T14:59:49;4.27;;;2.50;;
2748;SDS011;1382;52.142;11.618;2023-09-19T15:02:18;7.70;;;3.10;;
2748;SDS011;1382;52.142;11.618;2023-09-19T15:04:45;5.87;;;2.80;;
2748;SDS011;1382;52.142;11.618;2023-09-19T15:07:12;9.30;;;3.50;;
2748;SDS011;1382;52.142;11.618;2023-09-19T15:09:39;13.63;;;4.17;;
2748;SDS011;1382;52.142;11.618;2023-09-19T15:12:08;5.30;;;2.77;;
2748;SDS011;1382;52.142;11.618;2023-09-19T15:14:35;6.10;;;2.60;;
2748;SDS011;1382;52.142;11.618;2023-09-19T15:17:02;5.30;;;3.70;;
2748;SDS011;1382;52.142;11.618;2023-09-19T15:19:29;3.80;;;2.80;;
2748;SDS011;1382;52.142;11.618;2023-09-19T15:24:41;6.07;;;3.30;;
2748;SDS011;1382;52.142;11.618;2023-09-19T15:27:10;6.77;;;2.93;;
2748;SDS011;1382;52.142;11.618;2023-09-19T15:29:37;8.63;;;3.83;;
2748;SDS011;1382;52.142;11.618;2023-09-19T15:32:04;10.73;;;3.20;;
2748;SDS011;1382;52.142;11.618;2023-09-19T15:34:31;6.03;;;3.20;;